createdAt,value
2018-11-21T00:00:41.250Z,72.80
2018-11-21T00:03:09.183Z,72.70
2018-11-21T00:05:37.634Z,72.90
2018-11-21T00:08:05.663Z,72.50
2018-11-21T00:10:33.619Z,72.70
2018-11-21T00:13:01.554Z,72.40
2018-11-21T00:15:29.488Z,72.30
2018-11-21T00:18:00.520Z,72.20
2018-11-21T00:20:28.510Z,72.30
2018-11-21T00:22:56.497Z,72.30
2018-11-21T00:25:24.765Z,72.00
2018-11-21T00:27:53.060Z,72.20
2018-11-21T00:30:21.008Z,72.00
2018-11-21T00:32:48.993Z,72.20
2018-11-21T00:35:17.043Z,72.00
2018-11-21T00:37:44.971Z,72.00
2018-11-21T00:40:14.216Z,71.70
2018-11-21T00:42:46.704Z,71.50
2018-11-21T00:45:10.931Z,71.60
2018-11-21T00:47:40.474Z,71.80
2018-11-21T00:50:08.422Z,71.70
2018-11-21T00:52:36.582Z,71.90
2018-11-21T00:55:04.724Z,71.90
2018-11-21T00:57:32.965Z,71.60
2018-11-21T01:00:00.965Z,71.80
2018-11-21T01:02:30.844Z,71.80
2018-11-21T01:04:58.771Z,71.80
2018-11-21T01:07:26.745Z,71.60
2018-11-21T01:09:54.715Z,71.60
2018-11-21T01:12:22.973Z,71.30
2018-11-21T01:14:50.931Z,71.60
2018-11-21T01:17:18.863Z,71.60
2018-11-21T01:19:46.832Z,72.00
2018-11-21T01:22:14.804Z,71.60
2018-11-21T01:24:42.747Z,71.70
2018-11-21T01:27:10.727Z,71.30
2018-11-21T01:29:38.688Z,71.30
2018-11-21T01:32:06.647Z,71.50
2018-11-21T01:34:34.903Z,71.30
2018-11-21T01:37:02.946Z,71.10
2018-11-21T01:39:30.883Z,71.30
2018-11-21T01:41:58.868Z,71.20
2018-11-21T01:44:26.810Z,71.40
2018-11-21T01:46:55.099Z,71.20
2018-11-21T01:49:23.078Z,71.10
2018-11-21T01:51:51.023Z,71.20
2018-11-21T01:54:19.103Z,71.30
2018-11-21T01:56:47.035Z,71.30
2018-11-21T01:59:14.971Z,71.30
2018-11-21T02:01:43.335Z,71.10
2018-11-21T02:04:11.528Z,70.90
2018-11-21T02:06:39.720Z,70.80
2018-11-21T02:09:11.987Z,71.10
2018-11-21T02:11:39.911Z,71.20
2018-11-21T02:14:08.083Z,70.40
2018-11-21T02:16:36.297Z,70.90
2018-11-21T02:19:04.537Z,70.80
2018-11-21T02:21:32.515Z,70.50
2018-11-21T02:24:00.516Z,70.70
2018-11-21T02:26:28.533Z,70.80
2018-11-21T02:28:56.463Z,71.00
2018-11-21T02:31:24.530Z,71.00
2018-11-21T02:33:52.496Z,71.80
2018-11-21T02:36:20.425Z,70.70
2018-11-21T02:38:48.493Z,70.80
2018-11-21T02:41:16.436Z,70.70
2018-11-21T02:43:44.412Z,70.90
2018-11-21T02:46:12.384Z,70.90
2018-11-21T02:48:40.353Z,70.80
2018-11-21T02:51:08.289Z,70.80
2018-11-21T02:53:36.272Z,70.80
2018-11-21T02:56:04.216Z,70.80
2018-11-21T02:58:32.242Z,70.90
2018-11-21T03:01:00.522Z,70.90
2018-11-21T03:03:28.459Z,71.20
2018-11-21T03:05:56.401Z,71.30
2018-11-21T03:08:24.423Z,71.50
2018-11-21T03:10:52.350Z,71.20
2018-11-21T03:13:28.117Z,70.80
2018-11-21T03:15:48.312Z,71.10
2018-11-21T03:18:19.296Z,71.20
2018-11-21T03:20:47.259Z,71.00
2018-11-21T03:23:15.214Z,71.10
2018-11-21T03:25:43.585Z,71.90
2018-11-21T03:28:11.571Z,71.30
2018-11-21T03:30:39.507Z,71.30
2018-11-21T03:33:07.442Z,71.30
2018-11-21T03:35:35.445Z,71.50
2018-11-21T03:38:03.392Z,71.30
2018-11-21T03:40:31.361Z,71.60
2018-11-21T03:42:59.271Z,71.50
2018-11-21T03:45:27.228Z,71.40
2018-11-21T03:47:55.184Z,71.30
2018-11-21T03:50:23.251Z,71.50
2018-11-21T03:52:51.212Z,71.30
2018-11-21T03:55:19.158Z,71.10
2018-11-21T03:57:47.437Z,71.20
2018-11-21T04:00:15.383Z,71.30
2018-11-21T04:02:43.363Z,71.30
2018-11-21T04:05:11.658Z,71.30
2018-11-21T04:07:39.616Z,71.50
2018-11-21T04:10:09.844Z,71.50
2018-11-21T04:12:38.428Z,71.50
2018-11-21T04:15:08.346Z,71.40
2018-11-21T04:17:36.272Z,71.30
2018-11-21T04:20:04.936Z,71.40
2018-11-21T04:22:32.896Z,71.50
2018-11-21T04:25:00.868Z,71.60
2018-11-21T04:27:28.854Z,71.30
2018-11-21T04:29:57.411Z,71.70
2018-11-21T04:32:25.352Z,71.80
2018-11-21T04:34:53.337Z,71.70
2018-11-21T04:37:21.318Z,71.90
2018-11-21T04:39:49.239Z,71.50
2018-11-21T04:42:17.334Z,71.70
2018-11-21T04:44:45.265Z,72.00
2018-11-21T04:47:13.225Z,71.70
2018-11-21T04:49:41.580Z,72.00
2018-11-21T04:52:09.794Z,72.20
2018-11-21T04:54:37.840Z,72.10
2018-11-21T04:57:05.781Z,72.20
2018-11-21T04:59:33.803Z,72.40
2018-11-21T05:02:01.741Z,72.20
2018-11-21T05:04:29.706Z,72.00
2018-11-21T05:06:59.473Z,72.00
2018-11-21T05:09:27.403Z,71.90
2018-11-21T05:11:55.351Z,72.10
2018-11-21T05:14:23.320Z,72.30
2018-11-21T05:16:51.309Z,72.30
2018-11-21T05:19:19.438Z,72.00
2018-11-21T05:21:49.155Z,72.90
2018-11-21T05:24:17.238Z,72.00
2018-11-21T05:26:45.347Z,72.00
2018-11-21T05:29:13.520Z,72.10
2018-11-21T05:31:41.658Z,72.50
2018-11-21T05:34:09.793Z,72.50
2018-11-21T05:36:37.970Z,72.50
2018-11-21T05:39:09.433Z,72.70
2018-11-21T05:41:37.499Z,72.80
2018-11-21T05:44:05.615Z,72.80
2018-11-21T05:46:33.699Z,72.60
2018-11-21T05:49:02.117Z,72.60
2018-11-21T05:51:30.247Z,73.50
2018-11-21T05:53:58.504Z,72.70
2018-11-21T05:56:26.861Z,72.70
2018-11-21T05:58:54.916Z,72.60
2018-11-21T06:01:23.137Z,72.50
2018-11-21T06:03:51.500Z,72.70
2018-11-21T06:06:19.795Z,72.70
2018-11-21T06:08:47.853Z,72.90
2018-11-21T06:11:16.243Z,72.90
2018-11-21T06:13:44.285Z,72.80
2018-11-21T06:16:13.056Z,72.70
2018-11-21T06:18:41.130Z,72.90
2018-11-21T06:21:09.352Z,73.00
2018-11-21T06:23:37.383Z,73.30
2018-11-21T06:26:05.706Z,73.30
2018-11-21T06:28:33.730Z,73.00
2018-11-21T06:31:02.195Z,73.20
2018-11-21T06:33:30.418Z,73.20
2018-11-21T06:35:58.597Z,73.30
2018-11-21T06:38:26.758Z,73.30
2018-11-21T06:40:55.240Z,73.40
2018-11-21T06:43:23.226Z,73.60
2018-11-21T06:45:51.351Z,73.60
2018-11-21T06:48:19.657Z,73.60
2018-11-21T06:50:48.212Z,73.70
2018-11-21T06:53:16.715Z,73.30
2018-11-21T06:55:45.275Z,73.40
2018-11-21T06:58:13.858Z,73.60
2018-11-21T07:00:42.138Z,73.70
2018-11-21T07:03:10.417Z,73.60
2018-11-21T07:05:38.676Z,73.40
2018-11-21T07:08:06.937Z,73.40
2018-11-21T07:10:35.552Z,73.60
2018-11-21T07:13:04.060Z,73.60
2018-11-21T07:15:32.311Z,73.40
2018-11-21T07:18:00.551Z,73.40
2018-11-21T07:20:28.869Z,73.30
2018-11-21T07:22:57.133Z,73.40
2018-11-21T07:25:25.378Z,73.40
2018-11-21T07:27:53.644Z,73.60
2018-11-21T07:30:21.643Z,73.60
2018-11-21T07:32:49.854Z,73.90
2018-11-21T07:35:18.347Z,74.10
2018-11-21T07:37:47.265Z,74.20
2018-11-21T07:40:15.829Z,74.30
2018-11-21T07:42:43.846Z,74.50
2018-11-21T07:45:13.238Z,74.60
2018-11-21T07:47:41.794Z,74.60
2018-11-21T07:50:12.623Z,74.80
2018-11-21T07:52:40.929Z,75.40
2018-11-21T07:55:09.629Z,74.70
2018-11-21T07:57:39.091Z,74.60
2018-11-21T08:01:26.545Z,74.50
2018-11-21T08:03:59.415Z,74.50
2018-11-21T08:06:46.696Z,74.40
2018-11-21T08:09:22.690Z,74.40
2018-11-21T08:12:03.397Z,74.40
2018-11-21T08:14:53.652Z,74.30
2018-11-21T08:17:32.924Z,74.50
2018-11-21T08:20:26.123Z,74.70
2018-11-21T08:23:12.492Z,74.30
2018-11-21T08:26:02.635Z,74.20
2018-11-21T08:28:31.444Z,74.10
2018-11-21T08:30:59.544Z,74.10
2018-11-21T08:33:33.825Z,74.30
2018-11-21T08:35:56.056Z,74.30
2018-11-21T08:38:24.061Z,74.20
2018-11-21T08:40:52.067Z,74.30
2018-11-21T08:43:20.031Z,74.10
2018-11-21T08:45:48.075Z,74.00
2018-11-21T08:48:17.131Z,73.90
2018-11-21T08:50:45.105Z,74.10
2018-11-21T08:53:13.313Z,73.80
2018-11-21T08:55:41.280Z,74.00
2018-11-21T08:58:09.850Z,73.80
2018-11-21T09:00:37.807Z,73.80
2018-11-21T09:03:06.388Z,73.70
2018-11-21T09:05:34.367Z,73.80
2018-11-21T09:08:02.435Z,73.90
2018-11-21T09:12:59.742Z,74.10
2018-11-21T09:15:27.709Z,73.70
2018-11-21T09:17:55.684Z,73.70
2018-11-21T09:20:23.643Z,73.30
2018-11-21T09:22:51.545Z,73.70
2018-11-21T09:25:19.509Z,73.70
2018-11-21T09:27:47.475Z,73.70
2018-11-21T09:30:16.615Z,73.60
2018-11-21T09:32:45.367Z,74.00
2018-11-21T09:35:14.806Z,73.90
2018-11-21T09:37:43.011Z,74.10
2018-11-21T09:40:13.104Z,74.30
2018-11-21T09:42:42.295Z,74.30
2018-11-21T09:45:12.014Z,74.30
2018-11-21T09:47:39.979Z,74.50
2018-11-21T09:50:16.449Z,74.50
2018-11-21T09:52:44.695Z,74.50
2018-11-21T09:55:13.023Z,74.30
2018-11-21T09:57:40.968Z,74.60
2018-11-21T10:00:47.572Z,74.60
2018-11-21T10:03:17.502Z,74.80
2018-11-21T10:05:50.839Z,74.90
2018-11-21T10:08:48.421Z,74.80
2018-11-21T10:11:16.731Z,74.90
2018-11-21T10:13:44.671Z,74.90
2018-11-21T10:16:12.599Z,75.00
2018-11-21T10:18:42.267Z,75.10
2018-11-21T10:21:11.852Z,75.10
2018-11-21T10:23:39.802Z,75.10
2018-11-21T10:26:08.239Z,75.00
2018-11-21T10:28:36.257Z,74.60
2018-11-21T10:31:04.353Z,74.80
2018-11-21T10:33:32.575Z,74.90
2018-11-21T10:36:00.818Z,75.00
2018-11-21T10:38:29.025Z,75.00
2018-11-21T10:40:57.355Z,74.80
2018-11-21T10:43:28.439Z,74.90
2018-11-21T10:45:55.485Z,74.80
2018-11-21T10:48:23.440Z,74.90
2018-11-21T10:50:51.422Z,74.90
2018-11-21T10:53:19.352Z,74.80
2018-11-21T10:55:47.291Z,75.00
2018-11-21T10:58:16.595Z,74.70
2018-11-21T11:01:03.120Z,74.80
2018-11-21T11:03:33.980Z,74.80
2018-11-21T11:06:19.792Z,74.60
2018-11-21T11:09:03.852Z,74.50
2018-11-21T11:11:50.255Z,74.70
2018-11-21T11:14:32.744Z,74.60
2018-11-21T11:17:18.893Z,74.70
2018-11-21T11:20:08.559Z,75.00
2018-11-21T11:22:50.919Z,74.90
2018-11-21T11:25:38.075Z,75.10
2018-11-21T11:28:33.213Z,75.20
2018-11-21T11:31:17.891Z,75.50
2018-11-21T11:34:20.331Z,75.30
2018-11-21T11:37:24.695Z,75.10
2018-11-21T11:40:12.832Z,75.00
2018-11-21T11:43:06.172Z,74.80
2018-11-21T11:45:56.452Z,74.50
2018-11-21T11:48:36.199Z,74.60
2018-11-21T11:51:17.837Z,74.70
